sensor_id;sensor_type;location;lat;lon;timestamp;P1;durP1;ratioP1;P2;durP2;ratioP2
8889;SDS011;4481;43.406;24.454;2022-11-14T00:00:20;20.43;;;15.23;;
8889;SDS011;4481;43.406;24.454;2022-11-14T00:02:47;19.00;;;16.10;;
8889;SDS011;4481;43.406;24.454;2022-11-14T00:05:13;20.33;;;15.23;;
8889;SDS011;4481;43.406;24.454;2022-11-14T00:07:39;20.73;;;14.50;;
8889;SDS011;4481;43.406;24.454;2022-11-14T00:10:05;16.90;;;14.07;;
8889;SDS011;4481;43.406;24.454;2022-11-14T00:12:32;19.33;;;13.87;;
8889;SDS011;4481;43.406;24.454;2022-11-14T00:14:59;18.33;;;14.17;;
8889;SDS011;4481;43.406;24.454;2022-11-14T00:17:25;16.30;;;13.33;;
8889;SDS011;4481;43.406;24.454;2022-11-14T00:19:51;17.77;;;13.43;;
8889;SDS011;4481;43.406;24.454;2022-11-14T00:22:17;18.77;;;15.10;;
8889;SDS011;4481;43.406;24.454;2022-11-14T00:24:43;20.00;;;15.40;;
8889;SDS011;4481;43.406;24.454;2022-11-14T00:27:10;20.13;;;16.23;;
8889;SDS011;4481;43.406;24.454;2022-11-14T00:29:36;21.07;;;16.63;;
8889;SDS011;4481;43.406;24.454;2022-11-14T00:32:04;19.07;;;15.13;;
8889;SDS011;4481;43.406;24.454;2022-11-14T00:34:30;21.00;;;16.53;;
8889;SDS011;4481;43.406;24.454;2022-11-14T00:36:56;20.93;;;15.90;;
8889;SDS011;4481;43.406;24.454;2022-11-14T00:39:22;22.23;;;16.60;;
8889;SDS011;4481;43.406;24.454;2022-11-14T00:41:49;23.43;;;15.90;;
8889;SDS011;4481;43.406;24.454;2022-11-14T00:44:15;21.77;;;15.93;;
8889;SDS011;4481;43.406;24.454;2022-11-14T00:46:42;20.03;;;15.53;;
8889;SDS011;4481;43.406;24.454;2022-11-14T00:49:09;19.33;;;14.90;;
8889;SDS011;4481;43.406;24.454;2022-11-14T00:51:35;21.47;;;14.30;;
8889;SDS011;4481;43.406;24.454;2022-11-14T00:54:01;21.87;;;15.60;;
8889;SDS011;4481;43.406;24.454;2022-11-14T00:56:27;19.37;;;14.33;;
8889;SDS011;4481;43.406;24.454;2022-11-14T00:58:53;23.30;;;15.53;;
8889;SDS011;4481;43.406;24.454;2022-11-14T01:01:20;22.20;;;15.67;;
8889;SDS011;4481;43.406;24.454;2022-11-14T01:03:46;18.97;;;15.73;;
8889;SDS011;4481;43.406;24.454;2022-11-14T01:06:14;18.33;;;14.73;;
8889;SDS011;4481;43.406;24.454;2022-11-14T01:08:41;19.20;;;15.37;;
8889;SDS011;4481;43.406;24.454;2022-11-14T01:11:08;16.87;;;14.17;;
8889;SDS011;4481;43.406;24.454;2022-11-14T01:13:36;17.00;;;13.63;;
8889;SDS011;4481;43.406;24.454;2022-11-14T01:16:03;19.20;;;14.50;;
8889;SDS011;4481;43.406;24.454;2022-11-14T01:18:30;19.70;;;14.90;;
8889;SDS011;4481;43.406;24.454;2022-11-14T01:20:56;20.17;;;14.73;;
8889;SDS011;4481;43.406;24.454;2022-11-14T01:23:23;23.53;;;15.80;;
8889;SDS011;4481;43.406;24.454;2022-11-14T01:25:49;20.20;;;15.60;;
8889;SDS011;4481;43.406;24.454;2022-11-14T01:28:17;19.53;;;14.87;;
8889;SDS011;4481;43.406;24.454;2022-11-14T01:30:44;17.30;;;14.80;;
8889;SDS011;4481;43.406;24.454;2022-11-14T01:33:10;19.50;;;15.30;;
8889;SDS011;4481;43.406;24.454;2022-11-14T01:35:37;21.07;;;14.97;;
8889;SDS011;4481;43.406;24.454;2022-11-14T01:38:04;20.83;;;15.40;;
8889;SDS011;4481;43.406;24.454;2022-11-14T01:40:31;24.07;;;16.17;;
8889;SDS011;4481;43.406;24.454;2022-11-14T01:45:53;24.10;;;16.97;;
8889;SDS011;4481;43.406;24.454;2022-11-14T01:48:21;20.50;;;17.57;;
8889;SDS011;4481;43.406;24.454;2022-11-14T01:50:52;24.23;;;18.50;;
8889;SDS011;4481;43.406;24.454;2022-11-14T01:53:22;23.90;;;18.33;;
8889;SDS011;4481;43.406;24.454;2022-11-14T01:55:49;25.93;;;20.27;;
8889;SDS011;4481;43.406;24.454;2022-11-14T01:58:19;31.27;;;21.77;;
8889;SDS011;4481;43.406;24.454;2022-11-14T02:00:46;28.80;;;21.67;;
8889;SDS011;4481;43.406;24.454;2022-11-14T02:03:13;27.60;;;21.80;;
8889;SDS011;4481;43.406;24.454;2022-11-14T02:05:40;29.53;;;21.67;;
8889;SDS011;4481;43.406;24.454;2022-11-14T02:08:10;29.40;;;22.30;;
8889;SDS011;4481;43.406;24.454;2022-11-14T02:10:40;32.23;;;21.40;;
8889;SDS011;4481;43.406;24.454;2022-11-14T02:13:07;25.13;;;20.90;;
8889;SDS011;4481;43.406;24.454;2022-11-14T02:15:33;24.57;;;19.67;;
8889;SDS011;4481;43.406;24.454;2022-11-14T02:18:00;23.70;;;18.90;;
8889;SDS011;4481;43.406;24.454;2022-11-14T02:20:28;24.83;;;17.57;;
8889;SDS011;4481;43.406;24.454;2022-11-14T02:22:58;21.27;;;17.37;;
8889;SDS011;4481;43.406;24.454;2022-11-14T02:25:24;23.10;;;16.10;;
8889;SDS011;4481;43.406;24.454;2022-11-14T02:27:50;21.73;;;16.63;;
8889;SDS011;4481;43.406;24.454;2022-11-14T02:30:18;24.10;;;17.27;;
8889;SDS011;4481;43.406;24.454;2022-11-14T02:32:46;19.33;;;15.43;;
8889;SDS011;4481;43.406;24.454;2022-11-14T02:35:12;19.67;;;14.57;;
8889;SDS011;4481;43.406;24.454;2022-11-14T02:37:39;19.73;;;14.53;;
8889;SDS011;4481;43.406;24.454;2022-11-14T02:40:06;17.57;;;14.10;;
8889;SDS011;4481;43.406;24.454;2022-11-14T02:42:33;19.27;;;14.80;;
8889;SDS011;4481;43.406;24.454;2022-11-14T02:44:59;15.47;;;12.70;;
8889;SDS011;4481;43.406;24.454;2022-11-14T02:47:25;13.30;;;11.80;;
8889;SDS011;4481;43.406;24.454;2022-11-14T02:49:52;15.63;;;11.60;;
8889;SDS011;4481;43.406;24.454;2022-11-14T02:52:18;14.43;;;11.23;;
8889;SDS011;4481;43.406;24.454;2022-11-14T02:54:45;14.17;;;11.17;;
8889;SDS011;4481;43.406;24.454;2022-11-14T02:57:11;13.33;;;11.23;;
8889;SDS011;4481;43.406;24.454;2022-11-14T02:59:37;16.47;;;11.07;;
8889;SDS011;4481;43.406;24.454;2022-11-14T03:02:03;12.57;;;10.13;;
8889;SDS011;4481;43.406;24.454;2022-11-14T03:04:29;13.63;;;11.23;;
8889;SDS011;4481;43.406;24.454;2022-11-14T03:06:56;12.60;;;11.10;;
8889;SDS011;4481;43.406;24.454;2022-11-14T03:09:22;20.27;;;12.40;;
8889;SDS011;4481;43.406;24.454;2022-11-14T03:11:49;13.10;;;11.73;;
8889;SDS011;4481;43.406;24.454;2022-11-14T03:14:15;15.63;;;11.57;;
8889;SDS011;4481;43.406;24.454;2022-11-14T03:16:41;12.50;;;10.90;;
8889;SDS011;4481;43.406;24.454;2022-11-14T03:19:07;14.57;;;11.00;;
8889;SDS011;4481;43.406;24.454;2022-11-14T03:21:33;11.53;;;9.57;;
8889;SDS011;4481;43.406;24.454;2022-11-14T03:23:59;12.67;;;10.00;;
8889;SDS011;4481;43.406;24.454;2022-11-14T03:26:25;10.93;;;9.77;;
8889;SDS011;4481;43.406;24.454;2022-11-14T03:28:52;12.40;;;11.10;;
8889;SDS011;4481;43.406;24.454;2022-11-14T03:31:19;12.13;;;10.07;;
8889;SDS011;4481;43.406;24.454;2022-11-14T03:33:45;11.67;;;10.30;;
8889;SDS011;4481;43.406;24.454;2022-11-14T03:36:12;11.83;;;10.33;;
8889;SDS011;4481;43.406;24.454;2022-11-14T03:38:38;10.83;;;9.73;;
8889;SDS011;4481;43.406;24.454;2022-11-14T03:41:04;13.17;;;10.97;;
8889;SDS011;4481;43.406;24.454;2022-11-14T03:43:30;13.57;;;10.77;;
8889;SDS011;4481;43.406;24.454;2022-11-14T03:45:59;11.17;;;9.27;;
8889;SDS011;4481;43.406;24.454;2022-11-14T03:48:26;12.30;;;9.87;;
8889;SDS011;4481;43.406;24.454;2022-11-14T03:50:53;9.80;;;8.77;;
8889;SDS011;4481;43.406;24.454;2022-11-14T03:53:20;11.00;;;8.07;;
8889;SDS011;4481;43.406;24.454;2022-11-14T03:55:46;10.13;;;8.00;;
8889;SDS011;4481;43.406;24.454;2022-11-14T03:58:12;10.27;;;8.50;;
8889;SDS011;4481;43.406;24.454;2022-11-14T04:00:39;11.23;;;7.97;;
8889;SDS011;4481;43.406;24.454;2022-11-14T04:03:05;8.80;;;7.47;;
8889;SDS011;4481;43.406;24.454;2022-11-14T04:05:32;10.70;;;7.57;;
8889;SDS011;4481;43.406;24.454;2022-11-14T04:07:58;9.40;;;6.73;;
8889;SDS011;4481;43.406;24.454;2022-11-14T04:10:24;8.00;;;6.57;;
8889;SDS011;4481;43.406;24.454;2022-11-14T04:12:51;8.37;;;7.23;;
8889;SDS011;4481;43.406;24.454;2022-11-14T04:15:18;8.33;;;6.67;;
8889;SDS011;4481;43.406;24.454;2022-11-14T04:17:45;7.50;;;6.70;;
8889;SDS011;4481;43.406;24.454;2022-11-14T04:20:13;7.37;;;6.17;;
8889;SDS011;4481;43.406;24.454;2022-11-14T04:22:39;9.73;;;6.80;;
8889;SDS011;4481;43.406;24.454;2022-11-14T04:25:06;11.00;;;7.57;;
8889;SDS011;4481;43.406;24.454;2022-11-14T04:27:33;9.13;;;6.93;;
8889;SDS011;4481;43.406;24.454;2022-11-14T04:30:00;9.23;;;6.47;;
8889;SDS011;4481;43.406;24.454;2022-11-14T04:32:26;9.93;;;6.10;;
8889;SDS011;4481;43.406;24.454;2022-11-14T04:34:52;11.57;;;7.07;;
8889;SDS011;4481;43.406;24.454;2022-11-14T04:37:19;8.60;;;7.33;;
8889;SDS011;4481;43.406;24.454;2022-11-14T04:39:46;7.43;;;6.20;;
8889;SDS011;4481;43.406;24.454;2022-11-14T04:42:12;10.40;;;7.57;;
8889;SDS011;4481;43.406;24.454;2022-11-14T04:44:38;8.20;;;7.33;;
8889;SDS011;4481;43.406;24.454;2022-11-14T04:47:04;8.60;;;7.07;;
8889;SDS011;4481;43.406;24.454;2022-11-14T04:49:30;8.13;;;6.83;;
8889;SDS011;4481;43.406;24.454;2022-11-14T04:51:57;10.57;;;7.73;;
8889;SDS011;4481;43.406;24.454;2022-11-14T04:54:23;9.10;;;6.20;;
8889;SDS011;4481;43.406;24.454;2022-11-14T04:56:50;8.93;;;6.27;;
8889;SDS011;4481;43.406;24.454;2022-11-14T04:59:16;8.03;;;6.63;;
8889;SDS011;4481;43.406;24.454;2022-11-14T05:01:42;10.77;;;8.00;;
8889;SDS011;4481;43.406;24.454;2022-11-14T05:04:08;10.00;;;7.70;;
8889;SDS011;4481;43.406;24.454;2022-11-14T05:06:35;15.33;;;7.60;;
8889;SDS011;4481;43.406;24.454;2022-11-14T05:09:01;9.47;;;7.57;;
8889;SDS011;4481;43.406;24.454;2022-11-14T05:11:28;11.93;;;9.33;;
8889;SDS011;4481;43.406;24.454;2022-11-14T05:13:54;11.77;;;8.37;;
8889;SDS011;4481;43.406;24.454;2022-11-14T05:16:20;9.40;;;7.73;;
8889;SDS011;4481;43.406;24.454;2022-11-14T05:18:46;8.63;;;7.50;;
8889;SDS011;4481;43.406;24.454;2022-11-14T05:21:13;10.90;;;8.20;;
8889;SDS011;4481;43.406;24.454;2022-11-14T05:23:39;11.20;;;6.87;;
8889;SDS011;4481;43.406;24.454;2022-11-14T05:26:06;7.60;;;6.90;;
8889;SDS011;4481;43.406;24.454;2022-11-14T05:28:35;10.00;;;7.77;;
8889;SDS011;4481;43.406;24.454;2022-11-14T05:31:02;9.47;;;7.47;;
8889;SDS011;4481;43.406;24.454;2022-11-14T05:33:29;12.63;;;7.93;;
8889;SDS011;4481;43.406;24.454;2022-11-14T05:35:55;9.13;;;7.13;;
8889;SDS011;4481;43.406;24.454;2022-11-14T05:38:26;10.83;;;7.20;;
8889;SDS011;4481;43.406;24.454;2022-11-14T05:40:52;12.97;;;6.93;;
8889;SDS011;4481;43.406;24.454;2022-11-14T05:43:18;10.67;;;8.17;;
8889;SDS011;4481;43.406;24.454;2022-11-14T05:45:45;13.73;;;10.13;;
8889;SDS011;4481;43.406;24.454;2022-11-14T05:48:11;9.30;;;7.87;;
8889;SDS011;4481;43.406;24.454;2022-11-14T05:50:38;11.23;;;8.00;;
8889;SDS011;4481;43.406;24.454;2022-11-14T05:53:05;14.40;;;7.73;;
8889;SDS011;4481;43.406;24.454;2022-11-14T05:55:31;9.87;;;7.93;;
8889;SDS011;4481;43.406;24.454;2022-11-14T05:57:57;8.63;;;6.50;;
8889;SDS011;4481;43.406;24.454;2022-11-14T06:00:29;10.33;;;7.30;;
8889;SDS011;4481;43.406;24.454;2022-11-14T06:03:00;10.10;;;7.10;;
8889;SDS011;4481;43.406;24.454;2022-11-14T06:05:28;11.67;;;7.57;;
8889;SDS011;4481;43.406;24.454;2022-11-14T06:07:56;10.77;;;8.33;;
8889;SDS011;4481;43.406;24.454;2022-11-14T06:10:23;25.33;;;14.97;;
8889;SDS011;4481;43.406;24.454;2022-11-14T06:12:52;27.30;;;18.13;;
8889;SDS011;4481;43.406;24.454;2022-11-14T06:15:18;33.23;;;19.60;;
8889;SDS011;4481;43.406;24.454;2022-11-14T06:17:45;25.67;;;14.67;;
8889;SDS011;4481;43.406;24.454;2022-11-14T06:20:12;15.37;;;10.63;;
8889;SDS011;4481;43.406;24.454;2022-11-14T06:22:40;10.47;;;8.87;;
8889;SDS011;4481;43.406;24.454;2022-11-14T06:25:07;12.70;;;8.20;;
8889;SDS011;4481;43.406;24.454;2022-11-14T06:27:35;11.97;;;8.17;;
8889;SDS011;4481;43.406;24.454;2022-11-14T06:30:01;12.57;;;8.13;;
8889;SDS011;4481;43.406;24.454;2022-11-14T06:32:28;18.43;;;8.40;;
8889;SDS011;4481;43.406;24.454;2022-11-14T06:34:54;11.93;;;8.17;;
8889;SDS011;4481;43.406;24.454;2022-11-14T06:37:22;13.00;;;8.57;;
8889;SDS011;4481;43.406;24.454;2022-11-14T06:39:52;11.70;;;9.00;;
8889;SDS011;4481;43.406;24.454;2022-11-14T06:42:18;15.60;;;9.87;;
8889;SDS011;4481;43.406;24.454;2022-11-14T06:44:45;12.47;;;10.07;;
8889;SDS011;4481;43.406;24.454;2022-11-14T06:47:12;17.37;;;10.43;;
8889;SDS011;4481;43.406;24.454;2022-11-14T06:49:39;16.60;;;10.43;;
8889;SDS011;4481;43.406;24.454;2022-11-14T06:52:06;17.13;;;11.93;;
8889;SDS011;4481;43.406;24.454;2022-11-14T06:54:33;18.90;;;9.97;;
8889;SDS011;4481;43.406;24.454;2022-11-14T06:57:00;21.60;;;10.90;;
8889;SDS011;4481;43.406;24.454;2022-11-14T06:59:28;18.13;;;10.33;;
8889;SDS011;4481;43.406;24.454;2022-11-14T07:01:56;19.80;;;10.53;;
8889;SDS011;4481;43.406;24.454;2022-11-14T07:04:23;17.37;;;11.73;;
8889;SDS011;4481;43.406;24.454;2022-11-14T07:06:50;18.80;;;12.93;;
8889;SDS011;4481;43.406;24.454;2022-11-14T07:09:17;23.60;;;13.87;;
8889;SDS011;4481;43.406;24.454;2022-11-14T07:11:45;17.20;;;12.57;;
8889;SDS011;4481;43.406;24.454;2022-11-14T07:14:11;17.70;;;11.67;;
8889;SDS011;4481;43.406;24.454;2022-11-14T07:16:38;16.57;;;12.03;;
8889;SDS011;4481;43.406;24.454;2022-11-14T07:19:05;22.03;;;12.57;;
8889;SDS011;4481;43.406;24.454;2022-11-14T07:21:34;16.90;;;11.30;;
8889;SDS011;4481;43.406;24.454;2022-11-14T07:24:01;16.30;;;11.50;;
8889;SDS011;4481;43.406;24.454;2022-11-14T07:26:28;18.83;;;12.87;;
8889;SDS011;4481;43.406;24.454;2022-11-14T07:28:56;29.13;;;12.87;;
8889;SDS011;4481;43.406;24.454;2022-11-14T07:31:22;20.73;;;13.10;;
8889;SDS011;4481;43.406;24.454;2022-11-14T07:33:49;19.70;;;12.47;;
8889;SDS011;4481;43.406;24.454;2022-11-14T07:36:15;19.97;;;13.83;;
8889;SDS011;4481;43.406;24.454;2022-11-14T07:38:43;22.60;;;13.77;;
8889;SDS011;4481;43.406;24.454;2022-11-14T07:41:09;24.80;;;13.50;;
8889;SDS011;4481;43.406;24.454;2022-11-14T07:43:36;21.63;;;12.90;;
8889;SDS011;4481;43.406;24.454;2022-11-14T07:46:04;21.50;;;13.73;;
8889;SDS011;4481;43.406;24.454;2022-11-14T07:48:32;28.27;;;15.10;;
8889;SDS011;4481;43.406;24.454;2022-11-14T07:50:58;20.53;;;13.47;;
8889;SDS011;4481;43.406;24.454;2022-11-14T07:53:25;24.37;;;13.93;;
8889;SDS011;4481;43.406;24.454;2022-11-14T07:55:52;22.50;;;13.13;;
8889;SDS011;4481;43.406;24.454;2022-11-14T07:58:18;26.43;;;13.93;;
8889;SDS011;4481;43.406;24.454;2022-11-14T08:00:44;20.60;;;13.63;;
8889;SDS011;4481;43.406;24.454;2022-11-14T08:03:11;24.47;;;14.10;;
8889;SDS011;4481;43.406;24.454;2022-11-14T08:05:37;22.97;;;12.97;;
8889;SDS011;4481;43.406;24.454;2022-11-14T08:08:03;24.60;;;13.47;;
8889;SDS011;4481;43.406;24.454;2022-11-14T08:10:30;22.63;;;14.60;;
8889;SDS011;4481;43.406;24.454;2022-11-14T08:12:57;27.93;;;14.00;;
8889;SDS011;4481;43.406;24.454;2022-11-14T08:15:24;27.63;;;15.03;;
8889;SDS011;4481;43.406;24.454;2022-11-14T08:17:51;28.07;;;14.63;;
8889;SDS011;4481;43.406;24.454;2022-11-14T08:20:18;23.93;;;14.77;;
8889;SDS011;4481;43.406;24.454;2022-11-14T08:22:44;20.67;;;12.80;;
8889;SDS011;4481;43.406;24.454;2022-11-14T08:25:11;18.07;;;13.67;;
8889;SDS011;4481;43.406;24.454;2022-11-14T08:27:37;19.37;;;12.50;;
8889;SDS011;4481;43.406;24.454;2022-11-14T08:30:03;21.83;;;13.07;;
8889;SDS011;4481;43.406;24.454;2022-11-14T08:32:31;24.10;;;12.23;;
8889;SDS011;4481;43.406;24.454;2022-11-14T08:34:57;18.60;;;13.67;;
8889;SDS011;4481;43.406;24.454;2022-11-14T08:37:24;23.30;;;14.17;;
8889;SDS011;4481;43.406;24.454;2022-11-14T08:39:50;25.77;;;13.90;;
8889;SDS011;4481;43.406;24.454;2022-11-14T08:42:16;27.90;;;15.23;;
8889;SDS011;4481;43.406;24.454;2022-11-14T08:44:42;19.83;;;14.27;;
8889;SDS011;4481;43.406;24.454;2022-11-14T08:47:09;21.80;;;14.77;;
8889;SDS011;4481;43.406;24.454;2022-11-14T08:49:37;25.60;;;15.47;;
8889;SDS011;4481;43.406;24.454;2022-11-14T08:52:05;23.47;;;16.20;;
8889;SDS011;4481;43.406;24.454;2022-11-14T08:54:36;22.30;;;15.70;;
8889;SDS011;4481;43.406;24.454;2022-11-14T08:57:03;25.77;;;16.63;;
8889;SDS011;4481;43.406;24.454;2022-11-14T08:59:31;27.70;;;17.40;;
8889;SDS011;4481;43.406;24.454;2022-11-14T09:01:58;27.40;;;18.00;;
8889;SDS011;4481;43.406;24.454;2022-11-14T09:04:25;23.93;;;15.77;;
8889;SDS011;4481;43.406;24.454;2022-11-14T09:06:52;27.73;;;16.10;;
8889;SDS011;4481;43.406;24.454;2022-11-14T09:09:18;27.80;;;17.13;;
8889;SDS011;4481;43.406;24.454;2022-11-14T09:11:45;26.00;;;16.00;;
8889;SDS011;4481;43.406;24.454;2022-11-14T09:14:11;24.13;;;15.80;;
8889;SDS011;4481;43.406;24.454;2022-11-14T09:16:38;26.87;;;15.57;;
8889;SDS011;4481;43.406;24.454;2022-11-14T09:19:04;25.17;;;14.70;;
8889;SDS011;4481;43.406;24.454;2022-11-14T09:21:30;21.97;;;14.60;;
8889;SDS011;4481;43.406;24.454;2022-11-14T09:23:56;26.63;;;14.70;;
8889;SDS011;4481;43.406;24.454;2022-11-14T09:26:23;26.13;;;15.60;;
8889;SDS011;4481;43.406;24.454;2022-11-14T09:28:50;24.23;;;15.23;;
8889;SDS011;4481;43.406;24.454;2022-11-14T09:31:16;22.97;;;15.23;;
8889;SDS011;4481;43.406;24.454;2022-11-14T09:33:42;23.77;;;14.60;;
8889;SDS011;4481;43.406;24.454;2022-11-14T09:36:09;20.33;;;14.93;;
8889;SDS011;4481;43.406;24.454;2022-11-14T09:38:40;31.43;;;16.67;;
8889;SDS011;4481;43.406;24.454;2022-11-14T09:41:15;18.73;;;14.70;;
8889;SDS011;4481;43.406;24.454;2022-11-14T09:43:56;22.67;;;15.43;;
8889;SDS011;4481;43.406;24.454;2022-11-14T09:46:37;20.87;;;14.93;;
8889;SDS011;4481;43.406;24.454;2022-11-14T09:49:10;23.93;;;15.23;;
8889;SDS011;4481;43.406;24.454;2022-11-14T09:51:48;23.93;;;16.03;;
8889;SDS011;4481;43.406;24.454;2022-11-14T09:54:19;22.17;;;15.20;;
8889;SDS011;4481;43.406;24.454;2022-11-14T09:56:48;25.67;;;15.00;;
8889;SDS011;4481;43.406;24.454;2022-11-14T09:59:16;26.40;;;15.93;;
8889;SDS011;4481;43.406;24.454;2022-11-14T10:01:44;25.03;;;16.53;;
8889;SDS011;4481;43.406;24.454;2022-11-14T10:04:20;21.77;;;14.93;;
8889;SDS011;4481;43.406;24.454;2022-11-14T10:06:57;26.90;;;16.20;;
8889;SDS011;4481;43.406;24.454;2022-11-14T10:09:37;24.17;;;15.00;;
8889;SDS011;4481;43.406;24.454;2022-11-14T10:12:18;20.70;;;14.80;;
8889;SDS011;4481;43.406;24.454;2022-11-14T10:15:14;23.33;;;14.67;;
8889;SDS011;4481;43.406;24.454;2022-11-14T10:17:52;21.63;;;15.50;;
8889;SDS011;4481;43.406;24.454;2022-11-14T10:20:32;26.87;;;15.37;;
8889;SDS011;4481;43.406;24.454;2022-11-14T10:26:01;28.57;;;14.87;;
8889;SDS011;4481;43.406;24.454;2022-11-14T10:28:41;24.37;;;15.60;;
8889;SDS011;4481;43.406;24.454;2022-11-14T10:31:21;16.87;;;13.57;;
8889;SDS011;4481;43.406;24.454;2022-11-14T10:33:58;22.83;;;14.23;;
8889;SDS011;4481;43.406;24.454;2022-11-14T10:36:36;22.17;;;15.07;;
8889;SDS011;4481;43.406;24.454;2022-11-14T10:39:13;24.30;;;15.93;;
8889;SDS011;4481;43.406;24.454;2022-11-14T10:41:44;22.67;;;15.20;;
8889;SDS011;4481;43.406;24.454;2022-11-14T10:44:15;19.50;;;15.37;;
8889;SDS011;4481;43.406;24.454;2022-11-14T10:46:46;20.50;;;14.50;;
8889;SDS011;4481;43.406;24.454;2022-11-14T10:49:16;21.20;;;14.00;;
8889;SDS011;4481;43.406;24.454;2022-11-14T10:51:46;18.93;;;14.27;;
8889;SDS011;4481;43.406;24.454;2022-11-14T10:54:17;18.43;;;13.93;;
8889;SDS011;4481;43.406;24.454;2022-11-14T10:56:49;16.13;;;13.50;;
8889;SDS011;4481;43.406;24.454;2022-11-14T10:59:17;19.80;;;14.07;;
8889;SDS011;4481;43.406;24.454;2022-11-14T11:01:52;21.20;;;14.50;;
8889;SDS011;4481;43.406;24.454;2022-11-14T11:04:21;20.40;;;14.60;;
8889;SDS011;4481;43.406;24.454;2022-11-14T11:06:51;16.77;;;14.20;;
8889;SDS011;4481;43.406;24.454;2022-11-14T11:09:20;20.97;;;15.40;;
8889;SDS011;4481;43.406;24.454;2022-11-14T11:12:05;18.87;;;15.17;;
8889;SDS011;4481;43.406;24.454;2022-11-14T11:14:33;20.03;;;13.20;;
8889;SDS011;4481;43.406;24.454;2022-11-14T11:17:07;19.10;;;13.77;;
8889;SDS011;4481;43.406;24.454;2022-11-14T11:19:40;19.90;;;13.53;;
8889;SDS011;4481;43.406;24.454;2022-11-14T11:22:22;20.73;;;14.97;;
8889;SDS011;4481;43.406;24.454;2022-11-14T11:24:50;21.30;;;15.60;;
8889;SDS011;4481;43.406;24.454;2022-11-14T11:27:20;25.93;;;16.43;;
8889;SDS011;4481;43.406;24.454;2022-11-14T11:29:49;23.17;;;16.37;;
8889;SDS011;4481;43.406;24.454;2022-11-14T11:32:28;22.70;;;15.53;;
8889;SDS011;4481;43.406;24.454;2022-11-14T11:34:54;21.07;;;15.80;;
8889;SDS011;4481;43.406;24.454;2022-11-14T11:37:23;22.90;;;16.37;;
8889;SDS011;4481;43.406;24.454;2022-11-14T11:39:53;29.50;;;15.60;;
8889;SDS011;4481;43.406;24.454;2022-11-14T11:42:22;22.47;;;16.90;;
8889;SDS011;4481;43.406;24.454;2022-11-14T11:44:54;23.87;;;16.77;;
8889;SDS011;4481;43.406;24.454;2022-11-14T11:47:24;23.73;;;16.37;;
8889;SDS011;4481;43.406;24.454;2022-11-14T11:49:54;19.63;;;15.47;;
8889;SDS011;4481;43.406;24.454;2022-11-14T11:52:25;24.93;;;16.20;;
8889;SDS011;4481;43.406;24.454;2022-11-14T11:54:58;23.77;;;16.43;;
8889;SDS011;4481;43.406;24.454;2022-11-14T11:57:30;26.77;;;17.83;;
8889;SDS011;4481;43.406;24.454;2022-11-14T12:00:02;26.27;;;17.77;;
8889;SDS011;4481;43.406;24.454;2022-11-14T12:02:32;27.37;;;18.73;;
8889;SDS011;4481;43.406;24.454;2022-11-14T12:05:05;25.33;;;17.63;;
8889;SDS011;4481;43.406;24.454;2022-11-14T12:07:34;31.57;;;18.53;;
8889;SDS011;4481;43.406;24.454;2022-11-14T12:10:06;31.77;;;18.70;;
8889;SDS011;4481;43.406;24.454;2022-11-14T12:12:56;31.70;;;17.10;;
8889;SDS011;4481;43.406;24.454;2022-11-14T12:15:45;26.50;;;16.73;;
8889;SDS011;4481;43.406;24.454;2022-11-14T12:18:28;24.53;;;16.90;;
8889;SDS011;4481;43.406;24.454;2022-11-14T12:21:17;39.87;;;18.33;;
8889;SDS011;4481;43.406;24.454;2022-11-14T12:24:04;23.83;;;17.37;;
8889;SDS011;4481;43.406;24.454;2022-11-14T12:26:55;25.43;;;16.43;;
8889;SDS011;4481;43.406;24.454;2022-11-14T12:29:41;25.83;;;16.07;;
8889;SDS011;4481;43.406;24.454;2022-11-14T12:32:18;25.17;;;16.63;;
8889;SDS011;4481;43.406;24.454;2022-11-14T12:34:54;29.93;;;18.20;;
8889;SDS011;4481;43.406;24.454;2022-11-14T12:37:26;27.50;;;17.77;;
8889;SDS011;4481;43.406;24.454;2022-11-14T12:39:57;30.63;;;17.30;;
8889;SDS011;4481;43.406;24.454;2022-11-14T12:42:26;31.60;;;18.13;;
8889;SDS011;4481;43.406;24.454;2022-11-14T12:44:52;26.37;;;17.37;;
8889;SDS011;4481;43.406;24.454;2022-11-14T12:47:19;30.73;;;18.33;;
8889;SDS011;4481;43.406;24.454;2022-11-14T12:49:56;34.87;;;16.77;;
8889;SDS011;4481;43.406;24.454;2022-11-14T12:52:44;32.80;;;17.37;;
8889;SDS011;4481;43.406;24.454;2022-11-14T12:58:16;24.13;;;16.30;;
8889;SDS011;4481;43.406;24.454;2022-11-14T13:00:56;27.67;;;18.13;;
8889;SDS011;4481;43.406;24.454;2022-11-14T13:03:38;26.37;;;16.47;;
8889;SDS011;4481;43.406;24.454;2022-11-14T13:06:16;29.30;;;17.63;;
8889;SDS011;4481;43.406;24.454;2022-11-14T13:11:43;32.77;;;18.93;;
8889;SDS011;4481;43.406;24.454;2022-11-14T13:14:30;28.23;;;18.40;;
8889;SDS011;4481;43.406;24.454;2022-11-14T13:17:30;30.87;;;18.23;;
8889;SDS011;4481;43.406;24.454;2022-11-14T13:20:22;21.87;;;16.30;;
8889;SDS011;4481;43.406;24.454;2022-11-14T13:29:03;24.73;;;17.40;;
8889;SDS011;4481;43.406;24.454;2022-11-14T13:34:27;28.13;;;17.23;;
8889;SDS011;4481;43.406;24.454;2022-11-14T13:37:04;26.20;;;16.87;;
8889;SDS011;4481;43.406;24.454;2022-11-14T13:39:46;27.57;;;19.70;;
8889;SDS011;4481;43.406;24.454;2022-11-14T13:42:25;34.80;;;22.73;;
8889;SDS011;4481;43.406;24.454;2022-11-14T13:45:16;32.43;;;21.80;;
8889;SDS011;4481;43.406;24.454;2022-11-14T13:48:09;29.17;;;19.10;;
8889;SDS011;4481;43.406;24.454;2022-11-14T13:50:54;28.20;;;19.13;;
8889;SDS011;4481;43.406;24.454;2022-11-14T13:53:23;36.57;;;21.57;;
8889;SDS011;4481;43.406;24.454;2022-11-14T13:55:54;33.27;;;20.80;;
8889;SDS011;4481;43.406;24.454;2022-11-14T13:58:29;31.17;;;19.77;;
8889;SDS011;4481;43.406;24.454;2022-11-14T14:01:10;32.90;;;21.70;;
8889;SDS011;4481;43.406;24.454;2022-11-14T14:03:51;32.90;;;20.87;;
8889;SDS011;4481;43.406;24.454;2022-11-14T14:06:39;31.03;;;19.93;;
8889;SDS011;4481;43.406;24.454;2022-11-14T14:09:16;35.23;;;20.00;;
8889;SDS011;4481;43.406;24.454;2022-11-14T14:11:53;34.30;;;20.57;;
8889;SDS011;4481;43.406;24.454;2022-11-14T14:14:35;34.60;;;20.80;;
8889;SDS011;4481;43.406;24.454;2022-11-14T14:17:14;38.27;;;21.17;;
8889;SDS011;4481;43.406;24.454;2022-11-14T14:19:50;36.80;;;20.93;;
8889;SDS011;4481;43.406;24.454;2022-11-14T14:22:28;35.47;;;21.03;;
8889;SDS011;4481;43.406;24.454;2022-11-14T14:25:04;40.90;;;22.73;;
8889;SDS011;4481;43.406;24.454;2022-11-14T14:27:45;45.80;;;22.30;;
8889;SDS011;4481;43.406;24.454;2022-11-14T14:30:23;40.13;;;23.70;;
8889;SDS011;4481;43.406;24.454;2022-11-14T14:33:02;44.77;;;23.10;;
8889;SDS011;4481;43.406;24.454;2022-11-14T14:35:35;40.50;;;23.10;;
8889;SDS011;4481;43.406;24.454;2022-11-14T14:38:04;33.90;;;23.70;;
8889;SDS011;4481;43.406;24.454;2022-11-14T14:40:36;41.70;;;22.67;;
8889;SDS011;4481;43.406;24.454;2022-11-14T14:43:05;41.93;;;23.80;;
8889;SDS011;4481;43.406;24.454;2022-11-14T14:45:35;36.63;;;23.10;;
8889;SDS011;4481;43.406;24.454;2022-11-14T14:48:11;34.43;;;22.27;;
8889;SDS011;4481;43.406;24.454;2022-11-14T14:50:39;43.00;;;25.03;;
8889;SDS011;4481;43.406;24.454;2022-11-14T14:53:16;46.77;;;25.03;;
8889;SDS011;4481;43.406;24.454;2022-11-14T14:55:50;47.17;;;26.80;;
8889;SDS011;4481;43.406;24.454;2022-11-14T14:58:22;40.33;;;25.13;;
8889;SDS011;4481;43.406;24.454;2022-11-14T15:00:53;38.03;;;23.30;;
8889;SDS011;4481;43.406;24.454;2022-11-14T15:03:23;39.53;;;24.87;;
8889;SDS011;4481;43.406;24.454;2022-11-14T15:05:56;42.17;;;25.13;;
8889;SDS011;4481;43.406;24.454;2022-11-14T15:08:23;47.87;;;25.90;;
8889;SDS011;4481;43.406;24.454;2022-11-14T15:10:51;45.23;;;26.37;;
8889;SDS011;4481;43.406;24.454;2022-11-14T15:13:20;48.00;;;25.27;;